sensor_id;sensor_type;location;lat;lon;timestamp;P1;durP1;ratioP1;P2;durP2;ratioP2
42110;SDS011;27766;52.174;5.456;2024-01-10T00:01:05;3.78;;;2.17;;
42110;SDS011;27766;52.174;5.456;2024-01-10T00:03:32;3.42;;;2.33;;
42110;SDS011;27766;52.174;5.456;2024-01-10T00:05:59;3.35;;;2.28;;
42110;SDS011;27766;52.174;5.456;2024-01-10T00:08:30;5.47;;;2.20;;
42110;SDS011;27766;52.174;5.456;2024-01-10T00:10:58;5.20;;;2.17;;
42110;SDS011;27766;52.174;5.456;2024-01-10T00:13:25;3.45;;;1.75;;
42110;SDS011;27766;52.174;5.456;2024-01-10T00:15:54;3.20;;;2.22;;
42110;SDS011;27766;52.174;5.456;2024-01-10T00:18:22;4.18;;;1.92;;
42110;SDS011;27766;52.174;5.456;2024-01-10T00:20:51;3.75;;;2.08;;
42110;SDS011;27766;52.174;5.456;2024-01-10T00:23:21;5.43;;;2.17;;
42110;SDS011;27766;52.174;5.456;2024-01-10T00:25:48;2.42;;;2.10;;
42110;SDS011;27766;52.174;5.456;2024-01-10T00:28:16;2.70;;;1.92;;
42110;SDS011;27766;52.174;5.456;2024-01-10T00:30:45;5.70;;;1.90;;
42110;SDS011;27766;52.174;5.456;2024-01-10T00:33:15;4.38;;;2.50;;
42110;SDS011;27766;52.174;5.456;2024-01-10T00:35:43;3.13;;;1.88;;
42110;SDS011;27766;52.174;5.456;2024-01-10T00:38:10;2.78;;;1.77;;
42110;SDS011;27766;52.174;5.456;2024-01-10T00:40:37;3.75;;;1.98;;
42110;SDS011;27766;52.174;5.456;2024-01-10T00:43:05;10.05;;;2.13;;
42110;SDS011;27766;52.174;5.456;2024-01-10T00:45:32;1.85;;;1.67;;
42110;SDS011;27766;52.174;5.456;2024-01-10T00:47:59;3.53;;;1.83;;
42110;SDS011;27766;52.174;5.456;2024-01-10T00:50:27;4.97;;;1.58;;
42110;SDS011;27766;52.174;5.456;2024-01-10T00:52:54;2.75;;;2.17;;
42110;SDS011;27766;52.174;5.456;2024-01-10T00:55:22;3.45;;;2.05;;
42110;SDS011;27766;52.174;5.456;2024-01-10T00:57:49;3.90;;;2.17;;
42110;SDS011;27766;52.174;5.456;2024-01-10T01:00:16;3.60;;;1.92;;
42110;SDS011;27766;52.174;5.456;2024-01-10T01:02:43;3.75;;;2.45;;
42110;SDS011;27766;52.174;5.456;2024-01-10T01:05:11;3.67;;;2.10;;
42110;SDS011;27766;52.174;5.456;2024-01-10T01:07:38;3.13;;;2.08;;
42110;SDS011;27766;52.174;5.456;2024-01-10T01:10:05;3.28;;;1.77;;
42110;SDS011;27766;52.174;5.456;2024-01-10T01:12:32;6.32;;;2.40;;
42110;SDS011;27766;52.174;5.456;2024-01-10T01:15:00;4.70;;;1.83;;
42110;SDS011;27766;52.174;5.456;2024-01-10T01:17:27;2.65;;;2.10;;
42110;SDS011;27766;52.174;5.456;2024-01-10T01:19:54;4.68;;;2.75;;
42110;SDS011;27766;52.174;5.456;2024-01-10T01:22:21;3.75;;;1.88;;
42110;SDS011;27766;52.174;5.456;2024-01-10T01:24:48;3.83;;;2.10;;
42110;SDS011;27766;52.174;5.456;2024-01-10T01:27:15;3.88;;;2.30;;
42110;SDS011;27766;52.174;5.456;2024-01-10T01:29:42;6.28;;;2.72;;
42110;SDS011;27766;52.174;5.456;2024-01-10T01:32:10;3.85;;;2.17;;
42110;SDS011;27766;52.174;5.456;2024-01-10T01:34:37;6.50;;;2.70;;
42110;SDS011;27766;52.174;5.456;2024-01-10T01:37:04;3.13;;;2.22;;
42110;SDS011;27766;52.174;5.456;2024-01-10T01:39:32;3.13;;;2.45;;
42110;SDS011;27766;52.174;5.456;2024-01-10T01:41:59;6.15;;;2.80;;
42110;SDS011;27766;52.174;5.456;2024-01-10T01:44:26;4.72;;;2.50;;
42110;SDS011;27766;52.174;5.456;2024-01-10T01:46:53;3.38;;;2.20;;
42110;SDS011;27766;52.174;5.456;2024-01-10T01:49:20;3.63;;;2.42;;
42110;SDS011;27766;52.174;5.456;2024-01-10T01:51:48;4.55;;;2.80;;
42110;SDS011;27766;52.174;5.456;2024-01-10T01:54:15;2.95;;;1.75;;
42110;SDS011;27766;52.174;5.456;2024-01-10T01:56:43;4.15;;;2.53;;
42110;SDS011;27766;52.174;5.456;2024-01-10T01:59:11;6.32;;;2.65;;
42110;SDS011;27766;52.174;5.456;2024-01-10T02:01:39;4.38;;;2.83;;
42110;SDS011;27766;52.174;5.456;2024-01-10T02:04:07;2.85;;;1.77;;
42110;SDS011;27766;52.174;5.456;2024-01-10T02:06:34;5.47;;;3.05;;
42110;SDS011;27766;52.174;5.456;2024-01-10T02:09:01;7.00;;;2.67;;
42110;SDS011;27766;52.174;5.456;2024-01-10T02:11:30;3.80;;;2.17;;
42110;SDS011;27766;52.174;5.456;2024-01-10T02:13:58;4.03;;;2.47;;
42110;SDS011;27766;52.174;5.456;2024-01-10T02:16:25;2.83;;;2.22;;
42110;SDS011;27766;52.174;5.456;2024-01-10T02:18:52;3.58;;;2.33;;
42110;SDS011;27766;52.174;5.456;2024-01-10T02:21:22;4.45;;;2.50;;
42110;SDS011;27766;52.174;5.456;2024-01-10T02:23:50;7.20;;;2.00;;
42110;SDS011;27766;52.174;5.456;2024-01-10T02:26:20;3.70;;;2.70;;
42110;SDS011;27766;52.174;5.456;2024-01-10T02:28:47;13.95;;;2.30;;
42110;SDS011;27766;52.174;5.456;2024-01-10T02:31:15;4.50;;;2.40;;
42110;SDS011;27766;52.174;5.456;2024-01-10T02:33:42;5.18;;;2.50;;
42110;SDS011;27766;52.174;5.456;2024-01-10T02:36:09;4.03;;;2.22;;
42110;SDS011;27766;52.174;5.456;2024-01-10T02:38:36;3.08;;;2.10;;
42110;SDS011;27766;52.174;5.456;2024-01-10T02:41:03;5.63;;;2.55;;
42110;SDS011;27766;52.174;5.456;2024-01-10T02:43:31;3.08;;;2.20;;
42110;SDS011;27766;52.174;5.456;2024-01-10T02:45:58;3.83;;;2.22;;
42110;SDS011;27766;52.174;5.456;2024-01-10T02:48:25;3.45;;;2.40;;
42110;SDS011;27766;52.174;5.456;2024-01-10T02:50:53;3.65;;;2.10;;
42110;SDS011;27766;52.174;5.456;2024-01-10T02:53:21;3.10;;;1.85;;
42110;SDS011;27766;52.174;5.456;2024-01-10T02:55:49;3.67;;;2.72;;
42110;SDS011;27766;52.174;5.456;2024-01-10T02:58:17;3.95;;;2.22;;
42110;SDS011;27766;52.174;5.456;2024-01-10T03:00:45;4.03;;;2.20;;
42110;SDS011;27766;52.174;5.456;2024-01-10T03:03:12;7.28;;;2.60;;
42110;SDS011;27766;52.174;5.456;2024-01-10T03:05:40;2.63;;;2.17;;
42110;SDS011;27766;52.174;5.456;2024-01-10T03:08:08;3.65;;;2.40;;
42110;SDS011;27766;52.174;5.456;2024-01-10T03:10:35;6.30;;;2.70;;
42110;SDS011;27766;52.174;5.456;2024-01-10T03:13:02;4.78;;;2.42;;
42110;SDS011;27766;52.174;5.456;2024-01-10T03:15:29;2.95;;;2.40;;
42110;SDS011;27766;52.174;5.456;2024-01-10T03:17:58;3.38;;;2.15;;
42110;SDS011;27766;52.174;5.456;2024-01-10T03:20:25;2.92;;;2.28;;
42110;SDS011;27766;52.174;5.456;2024-01-10T03:22:52;4.15;;;3.17;;
42110;SDS011;27766;52.174;5.456;2024-01-10T03:25:19;5.28;;;2.35;;
42110;SDS011;27766;52.174;5.456;2024-01-10T03:27:47;3.60;;;2.25;;
42110;SDS011;27766;52.174;5.456;2024-01-10T03:30:14;3.00;;;2.10;;
42110;SDS011;27766;52.174;5.456;2024-01-10T03:32:41;2.95;;;1.98;;
42110;SDS011;27766;52.174;5.456;2024-01-10T03:35:09;3.95;;;2.47;;
42110;SDS011;27766;52.174;5.456;2024-01-10T03:37:36;4.07;;;2.30;;
42110;SDS011;27766;52.174;5.456;2024-01-10T03:40:03;4.78;;;2.83;;
42110;SDS011;27766;52.174;5.456;2024-01-10T03:42:30;5.97;;;2.65;;
42110;SDS011;27766;52.174;5.456;2024-01-10T03:44:58;5.55;;;2.60;;
42110;SDS011;27766;52.174;5.456;2024-01-10T03:47:25;5.40;;;2.35;;
42110;SDS011;27766;52.174;5.456;2024-01-10T03:49:52;4.47;;;2.22;;
42110;SDS011;27766;52.174;5.456;2024-01-10T03:52:19;5.50;;;2.75;;
42110;SDS011;27766;52.174;5.456;2024-01-10T03:54:46;3.83;;;2.58;;
42110;SDS011;27766;52.174;5.456;2024-01-10T03:57:14;2.80;;;1.85;;
42110;SDS011;27766;52.174;5.456;2024-01-10T03:59:41;3.53;;;2.22;;
42110;SDS011;27766;52.174;5.456;2024-01-10T04:02:08;3.83;;;2.55;;
42110;SDS011;27766;52.174;5.456;2024-01-10T04:04:36;9.63;;;2.72;;
42110;SDS011;27766;52.174;5.456;2024-01-10T04:07:06;4.65;;;2.40;;
42110;SDS011;27766;52.174;5.456;2024-01-10T04:09:33;3.25;;;2.10;;
42110;SDS011;27766;52.174;5.456;2024-01-10T04:12:00;12.35;;;2.90;;
42110;SDS011;27766;52.174;5.456;2024-01-10T04:14:27;4.70;;;2.85;;
42110;SDS011;27766;52.174;5.456;2024-01-10T04:16:54;3.95;;;2.42;;
42110;SDS011;27766;52.174;5.456;2024-01-10T04:19:21;2.67;;;2.05;;
42110;SDS011;27766;52.174;5.456;2024-01-10T04:21:49;3.72;;;2.03;;
42110;SDS011;27766;52.174;5.456;2024-01-10T04:24:16;5.80;;;2.78;;
42110;SDS011;27766;52.174;5.456;2024-01-10T04:26:43;4.90;;;2.38;;
42110;SDS011;27766;52.174;5.456;2024-01-10T04:29:10;3.55;;;2.55;;
42110;SDS011;27766;52.174;5.456;2024-01-10T04:31:37;3.40;;;2.50;;
42110;SDS011;27766;52.174;5.456;2024-01-10T04:34:05;5.45;;;2.80;;
42110;SDS011;27766;52.174;5.456;2024-01-10T04:36:33;4.15;;;2.53;;
42110;SDS011;27766;52.174;5.456;2024-01-10T04:39:00;4.47;;;2.08;;
42110;SDS011;27766;52.174;5.456;2024-01-10T04:41:27;4.18;;;2.40;;
42110;SDS011;27766;52.174;5.456;2024-01-10T04:43:55;3.35;;;2.63;;
42110;SDS011;27766;52.174;5.456;2024-01-10T04:46:22;7.15;;;2.33;;
42110;SDS011;27766;52.174;5.456;2024-01-10T04:48:49;4.53;;;2.65;;
42110;SDS011;27766;52.174;5.456;2024-01-10T04:51:16;3.15;;;2.60;;
42110;SDS011;27766;52.174;5.456;2024-01-10T04:53:43;3.30;;;2.22;;
42110;SDS011;27766;52.174;5.456;2024-01-10T04:56:11;5.13;;;2.88;;
42110;SDS011;27766;52.174;5.456;2024-01-10T04:58:38;6.82;;;2.50;;
42110;SDS011;27766;52.174;5.456;2024-01-10T05:01:05;5.85;;;3.05;;
42110;SDS011;27766;52.174;5.456;2024-01-10T05:03:32;3.70;;;2.40;;
42110;SDS011;27766;52.174;5.456;2024-01-10T05:06:00;4.43;;;3.10;;
42110;SDS011;27766;52.174;5.456;2024-01-10T05:08:27;5.47;;;2.60;;
42110;SDS011;27766;52.174;5.456;2024-01-10T05:10:54;5.47;;;2.85;;
42110;SDS011;27766;52.174;5.456;2024-01-10T05:13:22;3.55;;;2.50;;
42110;SDS011;27766;52.174;5.456;2024-01-10T05:15:49;4.43;;;3.05;;
42110;SDS011;27766;52.174;5.456;2024-01-10T05:18:16;3.15;;;2.50;;
42110;SDS011;27766;52.174;5.456;2024-01-10T05:20:47;5.30;;;3.13;;
42110;SDS011;27766;52.174;5.456;2024-01-10T05:23:15;5.32;;;3.10;;
42110;SDS011;27766;52.174;5.456;2024-01-10T05:25:42;6.53;;;2.78;;
42110;SDS011;27766;52.174;5.456;2024-01-10T05:28:10;3.50;;;2.55;;
42110;SDS011;27766;52.174;5.456;2024-01-10T05:30:37;5.07;;;2.78;;
42110;SDS011;27766;52.174;5.456;2024-01-10T05:33:04;4.70;;;2.90;;
42110;SDS011;27766;52.174;5.456;2024-01-10T05:35:31;6.00;;;2.85;;
42110;SDS011;27766;52.174;5.456;2024-01-10T05:37:58;3.92;;;2.75;;
42110;SDS011;27766;52.174;5.456;2024-01-10T05:40:26;5.40;;;2.55;;
42110;SDS011;27766;52.174;5.456;2024-01-10T05:42:54;5.60;;;3.00;;
42110;SDS011;27766;52.174;5.456;2024-01-10T05:45:21;5.07;;;2.83;;
42110;SDS011;27766;52.174;5.456;2024-01-10T05:47:48;8.85;;;3.08;;
42110;SDS011;27766;52.174;5.456;2024-01-10T05:50:16;3.72;;;2.92;;
42110;SDS011;27766;52.174;5.456;2024-01-10T05:52:47;7.22;;;3.13;;
42110;SDS011;27766;52.174;5.456;2024-01-10T05:55:15;4.18;;;3.10;;
42110;SDS011;27766;52.174;5.456;2024-01-10T05:57:43;4.60;;;2.72;;
42110;SDS011;27766;52.174;5.456;2024-01-10T06:00:10;4.60;;;3.28;;
42110;SDS011;27766;52.174;5.456;2024-01-10T06:02:39;4.25;;;2.72;;
42110;SDS011;27766;52.174;5.456;2024-01-10T06:05:07;9.15;;;3.00;;
42110;SDS011;27766;52.174;5.456;2024-01-10T06:07:36;6.30;;;3.20;;
42110;SDS011;27766;52.174;5.456;2024-01-10T06:10:04;5.95;;;3.25;;
42110;SDS011;27766;52.174;5.456;2024-01-10T06:12:32;5.38;;;3.10;;
42110;SDS011;27766;52.174;5.456;2024-01-10T06:14:59;2.58;;;2.35;;
42110;SDS011;27766;52.174;5.456;2024-01-10T06:17:26;8.80;;;3.25;;
42110;SDS011;27766;52.174;5.456;2024-01-10T06:19:54;5.40;;;2.88;;
42110;SDS011;27766;52.174;5.456;2024-01-10T06:22:21;7.30;;;3.70;;
42110;SDS011;27766;52.174;5.456;2024-01-10T06:24:55;8.30;;;3.22;;
42110;SDS011;27766;52.174;5.456;2024-01-10T06:27:22;6.68;;;2.80;;
42110;SDS011;27766;52.174;5.456;2024-01-10T06:29:49;5.85;;;3.40;;
42110;SDS011;27766;52.174;5.456;2024-01-10T06:32:16;4.78;;;3.53;;
42110;SDS011;27766;52.174;5.456;2024-01-10T06:34:43;5.80;;;3.22;;
42110;SDS011;27766;52.174;5.456;2024-01-10T06:37:11;4.85;;;2.80;;
42110;SDS011;27766;52.174;5.456;2024-01-10T06:39:38;5.07;;;2.97;;
42110;SDS011;27766;52.174;5.456;2024-01-10T06:42:05;3.70;;;2.55;;
42110;SDS011;27766;52.174;5.456;2024-01-10T06:44:35;8.10;;;3.08;;
42110;SDS011;27766;52.174;5.456;2024-01-10T06:47:03;8.88;;;3.88;;
42110;SDS011;27766;52.174;5.456;2024-01-10T06:49:30;5.07;;;3.05;;
42110;SDS011;27766;52.174;5.456;2024-01-10T06:51:58;4.38;;;3.00;;
42110;SDS011;27766;52.174;5.456;2024-01-10T06:54:30;3.78;;;2.95;;
42110;SDS011;27766;52.174;5.456;2024-01-10T06:56:57;3.72;;;2.58;;
42110;SDS011;27766;52.174;5.456;2024-01-10T06:59:24;6.35;;;3.17;;
42110;SDS011;27766;52.174;5.456;2024-01-10T07:01:54;4.75;;;2.80;;
42110;SDS011;27766;52.174;5.456;2024-01-10T07:04:24;5.32;;;3.28;;
42110;SDS011;27766;52.174;5.456;2024-01-10T07:06:55;4.82;;;3.13;;
42110;SDS011;27766;52.174;5.456;2024-01-10T07:09:22;6.55;;;3.17;;
42110;SDS011;27766;52.174;5.456;2024-01-10T07:11:49;5.75;;;3.17;;
42110;SDS011;27766;52.174;5.456;2024-01-10T07:14:16;7.25;;;3.47;;
42110;SDS011;27766;52.174;5.456;2024-01-10T07:16:44;7.63;;;3.30;;
42110;SDS011;27766;52.174;5.456;2024-01-10T07:19:13;6.20;;;3.53;;
42110;SDS011;27766;52.174;5.456;2024-01-10T07:21:41;6.45;;;3.67;;
42110;SDS011;27766;52.174;5.456;2024-01-10T07:24:09;4.90;;;2.85;;
42110;SDS011;27766;52.174;5.456;2024-01-10T07:26:39;5.93;;;3.38;;
42110;SDS011;27766;52.174;5.456;2024-01-10T07:29:07;5.35;;;3.10;;
42110;SDS011;27766;52.174;5.456;2024-01-10T07:31:35;5.13;;;3.00;;
42110;SDS011;27766;52.174;5.456;2024-01-10T07:34:03;10.18;;;4.30;;
42110;SDS011;27766;52.174;5.456;2024-01-10T07:36:33;4.90;;;3.63;;
42110;SDS011;27766;52.174;5.456;2024-01-10T07:39:07;7.13;;;4.20;;
42110;SDS011;27766;52.174;5.456;2024-01-10T07:41:35;7.70;;;4.32;;
42110;SDS011;27766;52.174;5.456;2024-01-10T07:44:02;5.60;;;3.80;;
42110;SDS011;27766;52.174;5.456;2024-01-10T07:46:30;7.03;;;4.15;;
42110;SDS011;27766;52.174;5.456;2024-01-10T07:48:57;10.40;;;5.78;;
42110;SDS011;27766;52.174;5.456;2024-01-10T07:51:27;11.07;;;6.25;;
42110;SDS011;27766;52.174;5.456;2024-01-10T07:53:55;9.15;;;4.88;;
42110;SDS011;27766;52.174;5.456;2024-01-10T07:56:22;12.93;;;5.10;;
42110;SDS011;27766;52.174;5.456;2024-01-10T07:58:50;7.10;;;4.15;;
42110;SDS011;27766;52.174;5.456;2024-01-10T08:01:18;4.60;;;3.72;;
42110;SDS011;27766;52.174;5.456;2024-01-10T08:03:45;5.70;;;3.75;;
42110;SDS011;27766;52.174;5.456;2024-01-10T08:06:13;6.93;;;3.92;;
42110;SDS011;27766;52.174;5.456;2024-01-10T08:08:52;10.98;;;4.55;;
42110;SDS011;27766;52.174;5.456;2024-01-10T08:11:20;6.60;;;3.70;;
42110;SDS011;27766;52.174;5.456;2024-01-10T08:13:47;4.65;;;3.30;;
42110;SDS011;27766;52.174;5.456;2024-01-10T08:16:14;4.90;;;3.22;;
42110;SDS011;27766;52.174;5.456;2024-01-10T08:18:41;7.50;;;3.88;;
42110;SDS011;27766;52.174;5.456;2024-01-10T08:21:09;6.82;;;3.33;;
42110;SDS011;27766;52.174;5.456;2024-01-10T08:23:36;5.53;;;3.28;;
42110;SDS011;27766;52.174;5.456;2024-01-10T08:26:06;6.45;;;3.63;;
42110;SDS011;27766;52.174;5.456;2024-01-10T08:28:35;10.07;;;4.03;;
42110;SDS011;27766;52.174;5.456;2024-01-10T08:31:02;6.18;;;3.00;;
42110;SDS011;27766;52.174;5.456;2024-01-10T08:33:31;5.80;;;3.67;;
42110;SDS011;27766;52.174;5.456;2024-01-10T08:35:59;6.70;;;3.47;;
42110;SDS011;27766;52.174;5.456;2024-01-10T08:38:26;5.18;;;2.75;;
42110;SDS011;27766;52.174;5.456;2024-01-10T08:40:54;3.80;;;2.75;;
42110;SDS011;27766;52.174;5.456;2024-01-10T08:43:21;7.07;;;3.55;;
42110;SDS011;27766;52.174;5.456;2024-01-10T08:45:48;7.40;;;3.70;;
42110;SDS011;27766;52.174;5.456;2024-01-10T08:48:16;5.03;;;3.13;;
42110;SDS011;27766;52.174;5.456;2024-01-10T08:50:46;4.90;;;2.97;;
42110;SDS011;27766;52.174;5.456;2024-01-10T08:53:14;7.00;;;3.67;;
42110;SDS011;27766;52.174;5.456;2024-01-10T08:55:43;5.55;;;3.45;;
42110;SDS011;27766;52.174;5.456;2024-01-10T08:58:10;5.60;;;2.72;;
42110;SDS011;27766;52.174;5.456;2024-01-10T09:00:37;4.85;;;3.05;;
42110;SDS011;27766;52.174;5.456;2024-01-10T09:03:04;11.23;;;3.22;;
42110;SDS011;27766;52.174;5.456;2024-01-10T09:05:33;6.40;;;3.28;;
42110;SDS011;27766;52.174;5.456;2024-01-10T09:08:00;8.18;;;3.22;;
42110;SDS011;27766;52.174;5.456;2024-01-10T09:10:28;4.88;;;3.40;;
42110;SDS011;27766;52.174;5.456;2024-01-10T09:12:57;6.10;;;3.67;;
42110;SDS011;27766;52.174;5.456;2024-01-10T09:15:25;6.20;;;3.22;;
42110;SDS011;27766;52.174;5.456;2024-01-10T09:17:52;5.47;;;2.63;;
42110;SDS011;27766;52.174;5.456;2024-01-10T09:20:20;5.05;;;3.22;;
42110;SDS011;27766;52.174;5.456;2024-01-10T09:22:47;7.50;;;4.15;;
42110;SDS011;27766;52.174;5.456;2024-01-10T09:25:16;9.73;;;3.80;;
42110;SDS011;27766;52.174;5.456;2024-01-10T09:27:44;4.93;;;3.10;;
42110;SDS011;27766;52.174;5.456;2024-01-10T09:30:12;6.38;;;3.58;;
42110;SDS011;27766;52.174;5.456;2024-01-10T09:32:45;4.63;;;3.10;;
42110;SDS011;27766;52.174;5.456;2024-01-10T09:35:15;5.03;;;3.22;;
42110;SDS011;27766;52.174;5.456;2024-01-10T09:37:44;7.57;;;4.28;;
42110;SDS011;27766;52.174;5.456;2024-01-10T09:40:14;5.28;;;3.83;;
42110;SDS011;27766;52.174;5.456;2024-01-10T09:42:47;9.93;;;4.30;;
42110;SDS011;27766;52.174;5.456;2024-01-10T09:45:16;6.07;;;3.55;;
42110;SDS011;27766;52.174;5.456;2024-01-10T09:47:46;5.88;;;3.58;;
42110;SDS011;27766;52.174;5.456;2024-01-10T09:50:18;7.95;;;4.03;;
42110;SDS011;27766;52.174;5.456;2024-01-10T09:52:52;8.07;;;4.00;;
42110;SDS011;27766;52.174;5.456;2024-01-10T09:55:21;6.32;;;3.83;;
42110;SDS011;27766;52.174;5.456;2024-01-10T09:57:51;5.18;;;3.95;;
42110;SDS011;27766;52.174;5.456;2024-01-10T10:00:19;5.53;;;3.85;;
42110;SDS011;27766;52.174;5.456;2024-01-10T10:02:50;6.45;;;3.78;;
42110;SDS011;27766;52.174;5.456;2024-01-10T10:05:19;5.90;;;3.85;;
42110;SDS011;27766;52.174;5.456;2024-01-10T10:07:48;5.85;;;3.10;;
42110;SDS011;27766;52.174;5.456;2024-01-10T10:10:20;10.65;;;4.13;;
42110;SDS011;27766;52.174;5.456;2024-01-10T10:12:48;5.88;;;3.35;;
42110;SDS011;27766;52.174;5.456;2024-01-10T10:15:17;4.15;;;3.53;;
42110;SDS011;27766;52.174;5.456;2024-01-10T10:17:49;6.00;;;4.25;;
42110;SDS011;27766;52.174;5.456;2024-01-10T10:20:21;7.55;;;4.50;;
42110;SDS011;27766;52.174;5.456;2024-01-10T10:23:00;6.10;;;3.55;;
42110;SDS011;27766;52.174;5.456;2024-01-10T10:25:28;7.97;;;4.53;;
42110;SDS011;27766;52.174;5.456;2024-01-10T10:27:58;11.02;;;3.95;;
42110;SDS011;27766;52.174;5.456;2024-01-10T10:30:27;10.60;;;4.30;;
42110;SDS011;27766;52.174;5.456;2024-01-10T10:32:55;8.82;;;3.85;;
42110;SDS011;27766;52.174;5.456;2024-01-10T10:35:23;6.03;;;4.32;;
42110;SDS011;27766;52.174;5.456;2024-01-10T10:38:04;5.90;;;3.90;;
42110;SDS011;27766;52.174;5.456;2024-01-10T10:40:35;7.85;;;3.88;;
42110;SDS011;27766;52.174;5.456;2024-01-10T10:43:03;8.07;;;3.90;;
42110;SDS011;27766;52.174;5.456;2024-01-10T10:45:32;6.53;;;3.72;;
42110;SDS011;27766;52.174;5.456;2024-01-10T10:48:01;6.60;;;3.65;;
42110;SDS011;27766;52.174;5.456;2024-01-10T10:50:33;8.93;;;3.92;;
42110;SDS011;27766;52.174;5.456;2024-01-10T10:53:04;7.45;;;3.85;;
42110;SDS011;27766;52.174;5.456;2024-01-10T10:55:32;9.93;;;4.55;;
42110;SDS011;27766;52.174;5.456;2024-01-10T10:58:01;6.10;;;4.00;;
42110;SDS011;27766;52.174;5.456;2024-01-10T11:00:38;11.90;;;4.63;;
42110;SDS011;27766;52.174;5.456;2024-01-10T11:03:07;6.50;;;3.63;;
42110;SDS011;27766;52.174;5.456;2024-01-10T11:05:39;7.28;;;4.22;;
42110;SDS011;27766;52.174;5.456;2024-01-10T11:08:09;8.70;;;3.65;;
42110;SDS011;27766;52.174;5.456;2024-01-10T11:10:39;6.25;;;3.95;;
42110;SDS011;27766;52.174;5.456;2024-01-10T11:18:51;6.75;;;4.00;;
42110;SDS011;27766;52.174;5.456;2024-01-10T11:24:00;7.10;;;4.47;;
42110;SDS011;27766;52.174;5.456;2024-01-10T11:26:31;6.35;;;4.25;;
42110;SDS011;27766;52.174;5.456;2024-01-10T11:29:00;7.45;;;4.45;;
42110;SDS011;27766;52.174;5.456;2024-01-10T11:31:28;8.85;;;4.88;;
42110;SDS011;27766;52.174;5.456;2024-01-10T11:33:57;7.25;;;4.22;;
42110;SDS011;27766;52.174;5.456;2024-01-10T11:36:25;6.47;;;4.45;;
42110;SDS011;27766;52.174;5.456;2024-01-10T11:41:36;8.48;;;5.05;;
42110;SDS011;27766;52.174;5.456;2024-01-10T11:46:40;7.78;;;3.95;;
42110;SDS011;27766;52.174;5.456;2024-01-10T11:49:17;9.18;;;3.97;;
42110;SDS011;27766;52.174;5.456;2024-01-10T11:51:46;6.53;;;3.80;;
42110;SDS011;27766;52.174;5.456;2024-01-10T11:54:36;7.68;;;3.97;;
42110;SDS011;27766;52.174;5.456;2024-01-10T11:57:22;6.18;;;4.05;;
42110;SDS011;27766;52.174;5.456;2024-01-10T11:59:55;7.72;;;4.72;;
42110;SDS011;27766;52.174;5.456;2024-01-10T12:02:23;6.72;;;3.83;;
42110;SDS011;27766;52.174;5.456;2024-01-10T12:04:52;8.05;;;4.43;;
42110;SDS011;27766;52.174;5.456;2024-01-10T12:07:22;6.93;;;4.05;;
42110;SDS011;27766;52.174;5.456;2024-01-10T12:09:51;6.28;;;4.07;;
42110;SDS011;27766;52.174;5.456;2024-01-10T12:12:19;8.75;;;4.60;;
42110;SDS011;27766;52.174;5.456;2024-01-10T12:14:47;6.57;;;4.30;;
42110;SDS011;27766;52.174;5.456;2024-01-10T12:17:14;6.50;;;3.60;;
42110;SDS011;27766;52.174;5.456;2024-01-10T12:19:42;7.15;;;4.30;;
42110;SDS011;27766;52.174;5.456;2024-01-10T12:22:13;6.32;;;4.13;;
42110;SDS011;27766;52.174;5.456;2024-01-10T12:24:49;7.45;;;3.55;;
42110;SDS011;27766;52.174;5.456;2024-01-10T12:27:18;7.43;;;4.18;;
42110;SDS011;27766;52.174;5.456;2024-01-10T12:29:48;6.53;;;4.10;;
42110;SDS011;27766;52.174;5.456;2024-01-10T12:32:19;7.80;;;4.40;;
42110;SDS011;27766;52.174;5.456;2024-01-10T12:34:54;5.25;;;3.28;;
42110;SDS011;27766;52.174;5.456;2024-01-10T12:37:24;8.02;;;3.80;;
42110;SDS011;27766;52.174;5.456;2024-01-10T12:39:51;8.32;;;4.10;;
42110;SDS011;27766;52.174;5.456;2024-01-10T12:42:20;6.47;;;4.00;;
42110;SDS011;27766;52.174;5.456;2024-01-10T12:44:47;9.15;;;3.92;;
42110;SDS011;27766;52.174;5.456;2024-01-10T12:47:18;7.78;;;4.30;;
42110;SDS011;27766;52.174;5.456;2024-01-10T12:49:49;6.53;;;3.95;;
42110;SDS011;27766;52.174;5.456;2024-01-10T12:52:17;9.98;;;4.53;;
42110;SDS011;27766;52.174;5.456;2024-01-10T12:54:50;8.02;;;4.43;;
42110;SDS011;27766;52.174;5.456;2024-01-10T12:57:18;7.90;;;4.35;;
42110;SDS011;27766;52.174;5.456;2024-01-10T12:59:45;5.53;;;3.85;;
42110;SDS011;27766;52.174;5.456;2024-01-10T13:02:13;6.45;;;3.90;;
42110;SDS011;27766;52.174;5.456;2024-01-10T13:04:40;6.82;;;4.32;;
42110;SDS011;27766;52.174;5.456;2024-01-10T13:07:08;7.45;;;4.18;;
42110;SDS011;27766;52.174;5.456;2024-01-10T13:09:35;10.20;;;4.20;;
42110;SDS011;27766;52.174;5.456;2024-01-10T13:12:04;5.13;;;3.72;;
42110;SDS011;27766;52.174;5.456;2024-01-10T13:14:32;7.80;;;4.28;;
42110;SDS011;27766;52.174;5.456;2024-01-10T13:16:59;10.00;;;5.00;;
42110;SDS011;27766;52.174;5.456;2024-01-10T13:19:27;6.60;;;3.92;;
42110;SDS011;27766;52.174;5.456;2024-01-10T13:21:55;6.97;;;4.32;;
42110;SDS011;27766;52.174;5.456;2024-01-10T13:24:22;6.65;;;4.05;;
42110;SDS011;27766;52.174;5.456;2024-01-10T13:26:49;6.15;;;4.07;;
42110;SDS011;27766;52.174;5.456;2024-01-10T13:29:16;6.32;;;3.88;;
42110;SDS011;27766;52.174;5.456;2024-01-10T13:31:44;7.35;;;4.13;;
42110;SDS011;27766;52.174;5.456;2024-01-10T13:34:11;8.48;;;3.70;;
42110;SDS011;27766;52.174;5.456;2024-01-10T13:36:39;7.35;;;3.75;;
42110;SDS011;27766;52.174;5.456;2024-01-10T13:39:06;5.53;;;3.92;;
42110;SDS011;27766;52.174;5.456;2024-01-10T13:41:34;5.05;;;3.72;;
42110;SDS011;27766;52.174;5.456;2024-01-10T13:44:01;8.23;;;4.00;;
42110;SDS011;27766;52.174;5.456;2024-01-10T13:46:29;7.95;;;4.60;;
42110;SDS011;27766;52.174;5.456;2024-01-10T13:48:56;8.30;;;4.32;;
42110;SDS011;27766;52.174;5.456;2024-01-10T13:51:23;6.90;;;4.45;;
42110;SDS011;27766;52.174;5.456;2024-01-10T13:53:50;10.50;;;3.95;;
42110;SDS011;27766;52.174;5.456;2024-01-10T13:56:18;8.18;;;5.07;;
42110;SDS011;27766;52.174;5.456;2024-01-10T13:58:45;7.40;;;4.72;;
42110;SDS011;27766;52.174;5.456;2024-01-10T14:01:13;8.10;;;4.53;;
42110;SDS011;27766;52.174;5.456;2024-01-10T14:03:41;5.75;;;3.53;;
42110;SDS011;27766;52.174;5.456;2024-01-10T14:06:08;6.63;;;3.65;;
42110;SDS011;27766;52.174;5.456;2024-01-10T14:08:35;10.30;;;4.07;;
42110;SDS011;27766;52.174;5.456;2024-01-10T14:11:04;7.22;;;4.40;;
42110;SDS011;27766;52.174;5.456;2024-01-10T14:13:31;10.48;;;4.80;;
42110;SDS011;27766;52.174;5.456;2024-01-10T14:15:58;12.50;;;5.10;;
42110;SDS011;27766;52.174;5.456;2024-01-10T14:18:26;20.52;;;4.57;;
42110;SDS011;27766;52.174;5.456;2024-01-10T14:20:53;9.27;;;3.95;;
42110;SDS011;27766;52.174;5.456;2024-01-10T14:23:20;7.80;;;4.18;;
42110;SDS011;27766;52.174;5.456;2024-01-10T14:25:47;7.32;;;4.40;;
42110;SDS011;27766;52.174;5.456;2024-01-10T14:28:15;5.82;;;4.00;;
42110;SDS011;27766;52.174;5.456;2024-01-10T14:30:42;10.73;;;4.45;;
42110;SDS011;27766;52.174;5.456;2024-01-10T14:33:10;9.02;;;4.45;;
42110;SDS011;27766;52.174;5.456;2024-01-10T14:35:39;7.68;;;4.65;;
42110;SDS011;27766;52.174;5.456;2024-01-10T14:38:07;9.57;;;4.50;;
42110;SDS011;27766;52.174;5.456;2024-01-10T14:40:34;6.30;;;3.67;;
42110;SDS011;27766;52.174;5.456;2024-01-10T14:43:02;10.55;;;5.22;;
42110;SDS011;27766;52.174;5.456;2024-01-10T14:45:30;9.40;;;5.10;;
42110;SDS011;27766;52.174;5.456;2024-01-10T14:47:57;6.72;;;4.50;;
42110;SDS011;27766;52.174;5.456;2024-01-10T14:50:25;7.03;;;4.38;;
42110;SDS011;27766;52.174;5.456;2024-01-10T14:52:52;8.32;;;5.00;;
42110;SDS011;27766;52.174;5.456;2024-01-10T14:55:19;6.90;;;4.38;;
42110;SDS011;27766;52.174;5.456;2024-01-10T14:57:47;8.77;;;5.10;;
42110;SDS011;27766;52.174;5.456;2024-01-10T15:00:14;6.47;;;4.45;;
42110;SDS011;27766;52.174;5.456;2024-01-10T15:02:42;7.10;;;4.30;;
42110;SDS011;27766;52.174;5.456;2024-01-10T15:05:11;11.45;;;4.03;;
42110;SDS011;27766;52.174;5.456;2024-01-10T15:07:39;8.77;;;4.43;;